Terminal Aerodrome Forecast
Issued by NWS

Home | Current Version | Previous Version | Text Only | Print | Product List | Glossary On
Versions: 1 2 3 4 5 6 7 8 9 10 11 12 13 14 15 16 17 18 19 20 21 22 23 24 25 26 27 28 29 30 31
519
FTUS41 KOKX 251122
TAFGON
TAF
KGON 251122Z 2512/2612 VRB03KT P6SM SCT060 BKN100
     FM251300 02006KT P6SM SCT035 OVC060
      TEMPO 2516/2519 -RA BKN025
     FM251900 04006KT 5SM -RA BR OVC009
     FM260000 04006KT 3SM -DZ BR OVC005
     FM261000 05009KT 5SM BR VCSH OVC009=

USA.gov is the U.S. government's official web portal to all federal, state and local government web resources and services.